createdAt,value
2019-03-15T00:02:34.260Z,99543.08
2019-03-15T00:07:36.442Z,99553.33
2019-03-15T00:12:38.612Z,99554.59
2019-03-15T00:17:40.706Z,99554.84
2019-03-15T00:22:42.908Z,99568.44
2019-03-15T00:27:45.054Z,99565.23
2019-03-15T00:32:47.140Z,99564.10
2019-03-15T00:37:49.323Z,99564.99
2019-03-15T00:42:51.420Z,99574.22
2019-03-15T00:47:53.501Z,99568.94
2019-03-15T00:52:55.507Z,99574.75
2019-03-15T00:57:57.604Z,99572.91
2019-03-15T01:02:59.754Z,99574.14
2019-03-15T01:08:01.805Z,99581.33
2019-03-15T01:13:03.873Z,99581.57
2019-03-15T01:18:06.296Z,99587.61
2019-03-15T01:23:08.492Z,99599.39
2019-03-15T01:28:10.539Z,99602.91
2019-03-15T01:33:12.585Z,99602.94
2019-03-15T01:38:14.769Z,99618.36
2019-03-15T01:43:16.951Z,99596.33
2019-03-15T01:48:18.988Z,99604.13
2019-03-15T01:53:21.197Z,99615.33
2019-03-15T01:58:23.287Z,99611.73
2019-03-15T02:03:26.005Z,99606.20
2019-03-15T02:08:28.067Z,99594.43
2019-03-15T02:13:30.178Z,99587.46
2019-03-15T02:18:32.324Z,99584.92
2019-03-15T02:23:34.447Z,99574.09
2019-03-15T02:28:36.857Z,99575.09
2019-03-15T02:33:38.938Z,99580.77
2019-03-15T02:38:41.099Z,99590.59
2019-03-15T02:43:43.188Z,99598.55
2019-03-15T02:48:45.313Z,99598.69
2019-03-15T02:53:47.495Z,99603.08
2019-03-15T02:58:49.714Z,99598.49
2019-03-15T03:03:51.758Z,99602.23
2019-03-15T03:08:53.823Z,99606.67
2019-03-15T03:13:55.936Z,99604.17
2019-03-15T03:18:58.010Z,99604.09
2019-03-15T03:24:00.091Z,99619.20
2019-03-15T03:29:02.201Z,99611.79
2019-03-15T03:34:04.318Z,99626.53
2019-03-15T03:39:06.777Z,99617.17
2019-03-15T03:44:08.870Z,99603.79
2019-03-15T03:49:11.278Z,99613.67
2019-03-15T03:54:13.471Z,99623.32
2019-03-15T03:59:15.560Z,99616.56
2019-03-15T04:04:17.979Z,99617.98
2019-03-15T04:09:20.055Z,99614.80
2019-03-15T04:14:22.134Z,99626.47
2019-03-15T04:19:24.767Z,99626.92
2019-03-15T04:24:27.009Z,99626.39
2019-03-15T04:29:29.129Z,99609.48
2019-03-15T04:34:31.166Z,99622.66
2019-03-15T04:39:33.576Z,99622.58
2019-03-15T04:44:35.945Z,99618.47
2019-03-15T04:49:37.998Z,99610.53
2019-03-15T04:54:40.022Z,99611.62
2019-03-15T04:59:42.124Z,99619.47
2019-03-15T05:04:44.185Z,99629.20
2019-03-15T05:09:46.658Z,99617.83
2019-03-15T05:14:48.798Z,99606.86
2019-03-15T05:19:50.924Z,99607.86
2019-03-15T05:24:53.124Z,99605.21
2019-03-15T05:29:55.296Z,99594.48
2019-03-15T05:34:57.451Z,99612.77
2019-03-15T05:39:59.575Z,99596.33
2019-03-15T05:45:02.108Z,99592.88
2019-03-15T05:50:05.543Z,99600.36
2019-03-15T05:55:12.078Z,99598.83
2019-03-15T06:00:14.345Z,99587.69
2019-03-15T06:05:16.383Z,99590.52
2019-03-15T06:10:18.526Z,99593.92
2019-03-15T06:15:20.644Z,99602.33
2019-03-15T06:20:22.939Z,99604.27
2019-03-15T06:25:25.268Z,99600.30
2019-03-15T06:30:27.409Z,99594.06
2019-03-15T06:35:29.516Z,99595.71
2019-03-15T06:40:32.373Z,99594.00
2019-03-15T06:45:34.935Z,99586.68
2019-03-15T06:50:37.027Z,99588.00
2019-03-15T06:55:39.064Z,99577.85
2019-03-15T07:00:41.482Z,99577.75
2019-03-15T07:05:43.600Z,99575.52
2019-03-15T07:10:45.605Z,99565.88
2019-03-15T07:15:47.654Z,99552.78
2019-03-15T07:20:49.777Z,99550.13
2019-03-15T07:25:52.094Z,99538.38
2019-03-15T07:30:54.288Z,99543.90
2019-03-15T07:35:56.638Z,99539.64
2019-03-15T07:40:58.799Z,99529.81
2019-03-15T07:46:00.958Z,99512.94
2019-03-15T07:51:03.261Z,99510.89
2019-03-15T07:56:05.334Z,99510.80
2019-03-15T08:01:07.433Z,99506.08
2019-03-15T08:06:09.465Z,99506.11
2019-03-15T08:11:11.639Z,99500.53
2019-03-15T08:16:13.708Z,99496.56
2019-03-15T08:21:15.745Z,99477.42
2019-03-15T08:26:17.929Z,99495.30
2019-03-15T08:31:23.111Z,99485.56
2019-03-15T08:36:23.950Z,99470.81
2019-03-15T08:41:26.006Z,99457.03
2019-03-15T08:46:28.068Z,99452.56
2019-03-15T08:51:30.203Z,99452.94
2019-03-15T08:56:32.345Z,99441.08
2019-03-15T09:01:34.404Z,99452.05
2019-03-15T09:06:36.513Z,99442.20
2019-03-15T09:11:38.620Z,99451.32
2019-03-15T09:16:40.654Z,99447.72
2019-03-15T09:21:42.829Z,99469.30
2019-03-15T09:26:44.964Z,99467.59
2019-03-15T09:31:48.434Z,99464.41
2019-03-15T09:36:51.328Z,99434.55
2019-03-15T09:41:53.924Z,99457.71
2019-03-15T09:46:55.901Z,99437.53
2019-03-15T09:51:58.101Z,99429.33
2019-03-15T09:57:00.110Z,99425.78
2019-03-15T10:02:02.715Z,99431.44
2019-03-15T10:07:05.127Z,99445.45
2019-03-15T10:12:07.217Z,99441.62
2019-03-15T10:17:09.296Z,99424.88
2019-03-15T10:22:11.342Z,99418.55
2019-03-15T10:27:13.750Z,99430.14
2019-03-15T10:32:16.056Z,99431.47
2019-03-15T10:37:18.109Z,99418.95
2019-03-15T10:42:20.193Z,99410.89
2019-03-15T10:47:22.259Z,99405.98
2019-03-15T10:52:24.346Z,99389.03
2019-03-15T10:57:26.358Z,99400.91
2019-03-15T11:02:28.384Z,99392.73
2019-03-15T11:07:30.460Z,99396.89
2019-03-15T11:12:32.494Z,99395.46
2019-03-15T11:17:34.583Z,99397.61
2019-03-15T11:22:36.658Z,99391.92
2019-03-15T11:27:38.745Z,99396.36
2019-03-15T11:32:40.782Z,99391.48
2019-03-15T11:37:43.009Z,99394.20
2019-03-15T11:42:45.508Z,99390.48
2019-03-15T11:48:02.933Z,99391.58
2019-03-15T11:52:51.617Z,99386.50
2019-03-15T11:57:53.664Z,99382.02
2019-03-15T12:02:55.790Z,99384.14
2019-03-15T12:07:57.871Z,99390.95
2019-03-15T12:12:59.987Z,99389.08
2019-03-15T12:18:02.103Z,99381.38
2019-03-15T12:23:04.195Z,99381.38
2019-03-15T12:28:06.697Z,99383.83
2019-03-15T12:33:08.795Z,99392.34
2019-03-15T12:38:11.186Z,99388.56
2019-03-15T12:43:13.322Z,99381.31
2019-03-15T12:48:15.433Z,99388.73
2019-03-15T12:53:17.505Z,99388.73
2019-03-15T12:58:19.960Z,99390.98
2019-03-15T13:03:22.043Z,99390.98
2019-03-15T13:08:24.092Z,99384.59
2019-03-15T13:13:26.152Z,99391.83
2019-03-15T13:18:28.233Z,99374.03
2019-03-15T13:23:30.340Z,99377.73
2019-03-15T13:28:32.537Z,99374.80
2019-03-15T13:33:34.613Z,99364.52
2019-03-15T13:38:36.800Z,99374.48
2019-03-15T13:43:38.831Z,99378.13
2019-03-15T13:48:40.935Z,99382.84
2019-03-15T13:53:43.009Z,99390.98
2019-03-15T13:58:56.735Z,99401.56
2019-03-15T14:03:49.353Z,99404.71
2019-03-15T14:08:51.537Z,99411.87
2019-03-15T14:13:53.597Z,99402.16
2019-03-15T14:18:55.720Z,99391.47
2019-03-15T14:23:58.112Z,99394.38
2019-03-15T14:29:00.248Z,99387.94
2019-03-15T14:34:02.280Z,99387.72
2019-03-15T14:39:05.536Z,99391.47
2019-03-15T14:44:07.698Z,99399.34
2019-03-15T14:49:09.737Z,99398.64
2019-03-15T14:54:11.795Z,99398.26
2019-03-15T14:59:13.973Z,99395.73
2019-03-15T15:04:16.348Z,99401.08
2019-03-15T15:09:18.636Z,99393.78
2019-03-15T15:14:20.905Z,99395.23
2019-03-15T15:19:23.025Z,99388.45
2019-03-15T15:24:25.050Z,99395.48
2019-03-15T15:29:27.140Z,99399.84
2019-03-15T15:34:29.173Z,99399.49
2019-03-15T15:39:31.327Z,99403.85
2019-03-15T15:44:33.422Z,99397.54
2019-03-15T15:49:35.496Z,99396.34
2019-03-15T15:54:37.639Z,99395.45
2019-03-15T15:59:39.687Z,99402.74
2019-03-15T16:04:42.040Z,99394.02
2019-03-15T16:09:44.125Z,99395.09
2019-03-15T16:14:46.150Z,99400.56
2019-03-15T16:19:48.202Z,99397.28
2019-03-15T16:24:50.274Z,99404.31
2019-03-15T16:29:52.456Z,99387.94
2019-03-15T16:34:54.540Z,99390.47
2019-03-15T16:39:56.639Z,99389.88
2019-03-15T16:44:58.776Z,99396.43
2019-03-15T16:50:00.834Z,99398.61
2019-03-15T16:55:03.317Z,99418.41
2019-03-15T17:00:06.366Z,99407.23
2019-03-15T17:05:09.064Z,99424.09
2019-03-15T17:10:11.254Z,99425.66
2019-03-15T17:15:13.370Z,99426.00
2019-03-15T17:20:15.628Z,99431.61
2019-03-15T17:25:17.689Z,99424.80
2019-03-15T17:30:19.848Z,99428.52
2019-03-15T17:35:21.934Z,99437.51
2019-03-15T17:40:24.315Z,99428.72
2019-03-15T17:45:27.301Z,99428.72
2019-03-15T17:50:29.507Z,99435.05
2019-03-15T17:55:31.516Z,99421.45
2019-03-15T18:00:39.693Z,99425.34
2019-03-15T18:05:41.907Z,99434.33
2019-03-15T18:10:44.040Z,99428.65
2019-03-15T18:15:46.151Z,99427.40
2019-03-15T18:20:48.202Z,99444.89
2019-03-15T18:25:50.617Z,99454.73
2019-03-15T18:30:53.102Z,99460.45
2019-03-15T18:35:55.148Z,99462.09
2019-03-15T18:40:57.232Z,99457.81
2019-03-15T18:45:59.290Z,99448.20
2019-03-15T18:51:01.404Z,99448.12
2019-03-15T18:56:03.497Z,99445.76
2019-03-15T19:01:05.585Z,99442.45
2019-03-15T19:06:11.069Z,99449.83
2019-03-15T19:11:14.855Z,99463.63
2019-03-15T19:16:20.423Z,99460.60
2019-03-15T19:21:24.368Z,99475.73
2019-03-15T19:26:31.459Z,99470.15
2019-03-15T19:31:35.237Z,99477.42
2019-03-15T19:36:39.580Z,99489.70
2019-03-15T19:41:41.826Z,99494.40
2019-03-15T19:46:44.375Z,99494.40
2019-03-15T19:51:46.676Z,99500.97
2019-03-15T19:56:48.802Z,99504.79
2019-03-15T20:01:51.104Z,99513.85
2019-03-15T20:06:53.501Z,99506.05
2019-03-15T20:11:55.604Z,99517.28
2019-03-15T20:16:57.654Z,99531.28
2019-03-15T20:21:59.812Z,99525.09
2019-03-15T20:27:01.935Z,99535.70
2019-03-15T20:32:04.632Z,99549.95
2019-03-15T20:37:06.760Z,99549.95
2019-03-15T20:42:09.182Z,99552.56
2019-03-15T20:47:11.343Z,99552.56
2019-03-15T20:52:13.535Z,99564.78
2019-03-15T20:57:15.637Z,99567.39
2019-03-15T21:02:17.971Z,99578.78
2019-03-15T21:07:20.331Z,99576.75
2019-03-15T21:12:22.475Z,99579.64
2019-03-15T21:17:24.803Z,99583.00
2019-03-15T21:22:26.998Z,99586.16
2019-03-15T21:27:31.560Z,99593.56
2019-03-15T21:32:40.429Z,99583.66
2019-03-15T21:37:46.419Z,99592.67
2019-03-15T21:42:48.638Z,99590.34
2019-03-15T21:47:51.109Z,99601.62
2019-03-15T21:52:53.257Z,99616.15
2019-03-15T21:57:55.304Z,99618.03
2019-03-15T22:02:57.396Z,99624.88
2019-03-15T22:07:59.861Z,99630.86
2019-03-15T22:13:02.086Z,99623.94
2019-03-15T22:18:04.336Z,99634.47
2019-03-15T22:23:06.750Z,99647.66
2019-03-15T22:28:09.080Z,99676.23
2019-03-15T22:33:11.508Z,99702.03
2019-03-15T22:38:25.654Z,99701.19
2019-03-15T22:43:17.975Z,99701.19
2019-03-15T22:48:20.131Z,99715.81
2019-03-15T22:53:23.650Z,99718.28
2019-03-15T22:58:26.565Z,99738.88
2019-03-15T23:03:29.051Z,99738.88
2019-03-15T23:08:31.121Z,99746.31
2019-03-15T23:13:33.259Z,99736.84
2019-03-15T23:18:35.477Z,99736.84
2019-03-15T23:23:37.555Z,99743.33
2019-03-15T23:28:42.378Z,99745.69
2019-03-15T23:33:44.447Z,99743.33
2019-03-15T23:38:46.945Z,99726.53
2019-03-15T23:43:49.011Z,99738.33
2019-03-15T23:48:51.193Z,99734.59
2019-03-15T23:53:53.832Z,99736.78
2019-03-15T23:58:55.911Z,99741.92
